sensor_id;sensor_type;location;lat;lon;timestamp;pressure;altitude;pressure_sealevel;temperature;humidity
48846;BME280;34665;51.886;5.436;2023-02-22T00:01:27;101408.13;;;14.96;100.00
48846;BME280;34665;51.886;5.436;2023-02-22T00:04:01;101414.38;;;14.83;100.00
48846;BME280;34665;51.886;5.436;2023-02-22T00:06:27;101409.19;;;14.47;100.00
48846;BME280;34665;51.886;5.436;2023-02-22T00:08:53;101405.25;;;14.16;100.00
48846;BME280;34665;51.886;5.436;2023-02-22T00:11:19;101401.13;;;14.07;100.00
48846;BME280;34665;51.886;5.436;2023-02-22T00:13:46;101401.19;;;13.58;100.00
48846;BME280;34665;51.886;5.436;2023-02-22T00:16:17;101405.81;;;13.85;100.00
48846;BME280;34665;51.886;5.436;2023-02-22T00:18:44;101405.94;;;13.56;100.00
48846;BME280;34665;51.886;5.436;2023-02-22T00:21:11;101412.53;;;14.36;100.00
48846;BME280;34665;51.886;5.436;2023-02-22T00:23:40;101406.44;;;13.80;100.00
48846;BME280;34665;51.886;5.436;2023-02-22T00:26:11;101405.88;;;14.18;100.00
48846;BME280;34665;51.886;5.436;2023-02-22T00:28:38;101407.53;;;14.13;100.00
48846;BME280;34665;51.886;5.436;2023-02-22T00:31:05;101407.94;;;14.30;100.00
48846;BME280;34665;51.886;5.436;2023-02-22T00:33:32;101412.59;;;13.67;100.00
48846;BME280;34665;51.886;5.436;2023-02-22T00:35:58;101406.06;;;13.97;100.00
48846;BME280;34665;51.886;5.436;2023-02-22T00:38:25;101404.81;;;14.06;100.00
48846;BME280;34665;51.886;5.436;2023-02-22T00:40:51;101395.66;;;13.80;100.00
48846;BME280;34665;51.886;5.436;2023-02-22T00:43:17;101391.56;;;13.98;100.00
48846;BME280;34665;51.886;5.436;2023-02-22T00:45:42;101392.75;;;13.61;100.00
48846;BME280;34665;51.886;5.436;2023-02-22T00:48:08;101386.00;;;14.13;100.00
48846;BME280;34665;51.886;5.436;2023-02-22T00:50:35;101390.53;;;14.86;100.00
48846;BME280;34665;51.886;5.436;2023-02-22T00:53:02;101388.50;;;14.82;100.00
48846;BME280;34665;51.886;5.436;2023-02-22T00:55:31;101390.84;;;15.24;100.00
48846;BME280;34665;51.886;5.436;2023-02-22T00:57:56;101378.34;;;14.03;100.00
48846;BME280;34665;51.886;5.436;2023-02-22T01:00:25;101380.63;;;14.46;100.00
48846;BME280;34665;51.886;5.436;2023-02-22T01:02:51;101377.06;;;13.72;100.00
48846;BME280;34665;51.886;5.436;2023-02-22T01:05:19;101379.59;;;14.00;100.00
48846;BME280;34665;51.886;5.436;2023-02-22T01:07:45;101382.09;;;14.42;100.00
48846;BME280;34665;51.886;5.436;2023-02-22T01:10:19;101377.81;;;13.52;100.00
48846;BME280;34665;51.886;5.436;2023-02-22T01:12:46;101377.94;;;14.06;100.00
48846;BME280;34665;51.886;5.436;2023-02-22T01:15:13;101374.31;;;13.58;100.00
48846;BME280;34665;51.886;5.436;2023-02-22T01:17:40;101380.63;;;13.93;100.00
48846;BME280;34665;51.886;5.436;2023-02-22T01:20:09;101390.50;;;13.72;100.00
48846;BME280;34665;51.886;5.436;2023-02-22T01:22:41;101384.50;;;13.70;100.00
48846;BME280;34665;51.886;5.436;2023-02-22T01:25:07;101385.66;;;13.47;100.00
48846;BME280;34665;51.886;5.436;2023-02-22T01:27:34;101372.44;;;13.52;100.00
48846;BME280;34665;51.886;5.436;2023-02-22T01:30:01;101376.72;;;12.98;100.00
48846;BME280;34665;51.886;5.436;2023-02-22T01:32:34;101366.00;;;12.98;100.00
48846;BME280;34665;51.886;5.436;2023-02-22T01:35:01;101369.00;;;13.72;100.00
48846;BME280;34665;51.886;5.436;2023-02-22T01:37:30;101360.13;;;14.05;100.00
48846;BME280;34665;51.886;5.436;2023-02-22T01:39:58;101356.59;;;13.77;100.00
48846;BME280;34665;51.886;5.436;2023-02-22T01:42:24;101349.72;;;13.48;100.00
48846;BME280;34665;51.886;5.436;2023-02-22T01:53:34;101345.44;;;14.01;100.00
48846;BME280;34665;51.886;5.436;2023-02-22T01:56:02;101347.31;;;14.20;100.00
48846;BME280;34665;51.886;5.436;2023-02-22T01:58:31;101353.31;;;14.43;100.00
48846;BME280;34665;51.886;5.436;2023-02-22T02:00:57;101347.72;;;14.51;100.00
48846;BME280;34665;51.886;5.436;2023-02-22T02:03:25;101341.50;;;13.76;100.00
48846;BME280;34665;51.886;5.436;2023-02-22T02:05:54;101340.63;;;13.49;100.00
48846;BME280;34665;51.886;5.436;2023-02-22T02:11:20;101337.97;;;13.76;100.00
48846;BME280;34665;51.886;5.436;2023-02-22T02:13:49;101332.69;;;13.34;100.00
48846;BME280;34665;51.886;5.436;2023-02-22T02:16:16;101323.28;;;13.72;100.00
48846;BME280;34665;51.886;5.436;2023-02-22T02:18:43;101324.53;;;13.76;100.00
48846;BME280;34665;51.886;5.436;2023-02-22T02:21:36;101326.19;;;13.64;100.00
48846;BME280;34665;51.886;5.436;2023-02-22T02:30:01;101305.13;;;13.87;100.00
48846;BME280;34665;51.886;5.436;2023-02-22T02:32:44;101298.88;;;13.60;100.00
48846;BME280;34665;51.886;5.436;2023-02-22T02:35:20;101298.91;;;13.87;100.00
48846;BME280;34665;51.886;5.436;2023-02-22T02:38:21;101299.31;;;14.17;100.00
48846;BME280;34665;51.886;5.436;2023-02-22T02:41:06;101289.16;;;13.52;100.00
48846;BME280;34665;51.886;5.436;2023-02-22T02:46:13;101289.41;;;13.98;100.00
48846;BME280;34665;51.886;5.436;2023-02-22T02:48:56;101290.19;;;13.51;100.00
48846;BME280;34665;51.886;5.436;2023-02-22T02:51:29;101286.66;;;13.57;100.00
48846;BME280;34665;51.886;5.436;2023-02-22T02:53:58;101292.09;;;14.11;100.00
48846;BME280;34665;51.886;5.436;2023-02-22T02:56:26;101291.47;;;13.96;100.00
48846;BME280;34665;51.886;5.436;2023-02-22T02:58:52;101274.28;;;13.63;100.00
48846;BME280;34665;51.886;5.436;2023-02-22T03:01:51;101279.22;;;13.59;100.00
48846;BME280;34665;51.886;5.436;2023-02-22T03:07:27;101274.50;;;13.61;100.00
48846;BME280;34665;51.886;5.436;2023-02-22T03:13:25;101271.75;;;13.41;100.00
48846;BME280;34665;51.886;5.436;2023-02-22T03:21:32;101257.72;;;12.84;100.00
48846;BME280;34665;51.886;5.436;2023-02-22T03:24:17;101249.16;;;12.60;100.00
48846;BME280;34665;51.886;5.436;2023-02-22T03:27:17;101256.16;;;13.10;100.00
48846;BME280;34665;51.886;5.436;2023-02-22T03:29:46;101248.25;;;13.57;100.00
48846;BME280;34665;51.886;5.436;2023-02-22T03:32:20;101257.72;;;12.84;100.00
48846;BME280;34665;51.886;5.436;2023-02-22T03:34:52;101247.41;;;13.50;100.00
48846;BME280;34665;51.886;5.436;2023-02-22T03:37:29;101253.94;;;12.65;100.00
48846;BME280;34665;51.886;5.436;2023-02-22T03:39:59;101245.03;;;13.19;100.00
48846;BME280;34665;51.886;5.436;2023-02-22T03:42:33;101248.19;;;13.30;100.00
48846;BME280;34665;51.886;5.436;2023-02-22T03:45:03;101243.16;;;13.13;100.00
48846;BME280;34665;51.886;5.436;2023-02-22T03:47:37;101238.94;;;13.46;100.00
48846;BME280;34665;51.886;5.436;2023-02-22T03:50:08;101242.72;;;13.10;100.00
48846;BME280;34665;51.886;5.436;2023-02-22T03:52:36;101238.94;;;13.46;100.00
48846;BME280;34665;51.886;5.436;2023-02-22T03:55:07;101236.34;;;13.04;100.00
48846;BME280;34665;51.886;5.436;2023-02-22T03:57:44;101230.84;;;12.77;100.00
48846;BME280;34665;51.886;5.436;2023-02-22T04:00:13;101225.34;;;12.92;100.00
48846;BME280;34665;51.886;5.436;2023-02-22T04:02:40;101228.72;;;12.59;100.00
48846;BME280;34665;51.886;5.436;2023-02-22T04:05:07;101227.88;;;13.20;100.00
48846;BME280;34665;51.886;5.436;2023-02-22T04:07:33;101222.13;;;13.17;100.00
48846;BME280;34665;51.886;5.436;2023-02-22T04:09:59;101227.84;;;12.45;100.00
48846;BME280;34665;51.886;5.436;2023-02-22T04:12:27;101218.72;;;12.39;100.00
48846;BME280;34665;51.886;5.436;2023-02-22T04:14:56;101211.28;;;12.90;100.00
48846;BME280;34665;51.886;5.436;2023-02-22T04:17:22;101210.28;;;12.98;100.00
48846;BME280;34665;51.886;5.436;2023-02-22T04:19:48;101206.88;;;12.69;100.00
48846;BME280;34665;51.886;5.436;2023-02-22T04:22:14;101201.59;;;12.96;100.00
48846;BME280;34665;51.886;5.436;2023-02-22T04:24:40;101197.53;;;13.20;100.00
48846;BME280;34665;51.886;5.436;2023-02-22T04:27:05;101205.84;;;13.52;100.00
48846;BME280;34665;51.886;5.436;2023-02-22T04:29:34;101201.72;;;13.70;100.00
48846;BME280;34665;51.886;5.436;2023-02-22T04:32:00;101198.00;;;13.84;100.00
48846;BME280;34665;51.886;5.436;2023-02-22T04:34:26;101194.66;;;13.96;100.00
48846;BME280;34665;51.886;5.436;2023-02-22T04:36:52;101196.09;;;13.31;100.00
48846;BME280;34665;51.886;5.436;2023-02-22T04:39:17;101182.69;;;13.44;100.00
48846;BME280;34665;51.886;5.436;2023-02-22T04:41:43;101182.88;;;13.29;100.00
48846;BME280;34665;51.886;5.436;2023-02-22T04:44:10;101177.81;;;12.86;100.00
48846;BME280;34665;51.886;5.436;2023-02-22T04:46:36;101181.63;;;13.18;100.00
48846;BME280;34665;51.886;5.436;2023-02-22T04:49:01;101176.31;;;12.63;100.00
48846;BME280;34665;51.886;5.436;2023-02-22T04:51:30;101172.47;;;12.86;100.00
48846;BME280;34665;51.886;5.436;2023-02-22T04:54:01;101168.16;;;12.98;100.00
48846;BME280;34665;51.886;5.436;2023-02-22T04:56:29;101167.38;;;13.11;100.00
48846;BME280;34665;51.886;5.436;2023-02-22T04:58:55;101155.53;;;12.79;100.00
48846;BME280;34665;51.886;5.436;2023-02-22T05:01:21;101161.59;;;13.75;100.00
48846;BME280;34665;51.886;5.436;2023-02-22T05:03:47;101154.00;;;13.52;100.00
48846;BME280;34665;51.886;5.436;2023-02-22T05:06:13;101155.75;;;14.05;100.00
48846;BME280;34665;51.886;5.436;2023-02-22T05:08:38;101151.56;;;14.23;100.00
48846;BME280;34665;51.886;5.436;2023-02-22T05:11:04;101154.50;;;14.21;100.00
48846;BME280;34665;51.886;5.436;2023-02-22T05:13:30;101155.31;;;14.15;100.00
48846;BME280;34665;51.886;5.436;2023-02-22T05:15:56;101163.00;;;14.04;100.00
48846;BME280;34665;51.886;5.436;2023-02-22T05:18:21;101155.41;;;13.54;100.00
48846;BME280;34665;51.886;5.436;2023-02-22T05:20:47;101150.34;;;12.77;100.00
48846;BME280;34665;51.886;5.436;2023-02-22T05:23:12;101151.03;;;13.06;100.00
48846;BME280;34665;51.886;5.436;2023-02-22T05:25:37;101145.41;;;12.81;100.00
48846;BME280;34665;51.886;5.436;2023-02-22T05:28:07;101155.44;;;12.52;100.00
48846;BME280;34665;51.886;5.436;2023-02-22T05:30:35;101154.75;;;12.36;100.00
48846;BME280;34665;51.886;5.436;2023-02-22T05:33:04;101144.47;;;12.04;100.00
48846;BME280;34665;51.886;5.436;2023-02-22T05:35:29;101152.25;;;12.28;100.00
48846;BME280;34665;51.886;5.436;2023-02-22T05:37:55;101144.78;;;11.88;100.00
48846;BME280;34665;51.886;5.436;2023-02-22T05:40:24;101132.06;;;12.39;100.00
48846;BME280;34665;51.886;5.436;2023-02-22T05:42:52;101133.88;;;12.25;100.00
48846;BME280;34665;51.886;5.436;2023-02-22T05:45:20;101144.72;;;12.65;100.00
48846;BME280;34665;51.886;5.436;2023-02-22T05:47:47;101133.00;;;12.73;100.00
48846;BME280;34665;51.886;5.436;2023-02-22T05:50:13;101134.25;;;12.77;100.00
48846;BME280;34665;51.886;5.436;2023-02-22T05:52:39;101133.34;;;12.50;100.00
48846;BME280;34665;51.886;5.436;2023-02-22T05:55:06;101135.84;;;12.58;100.00
48846;BME280;34665;51.886;5.436;2023-02-22T05:57:32;101129.69;;;12.71;100.00
48846;BME280;34665;51.886;5.436;2023-02-22T05:59:58;101125.53;;;12.55;100.00
48846;BME280;34665;51.886;5.436;2023-02-22T06:02:23;101125.00;;;12.24;100.00
48846;BME280;34665;51.886;5.436;2023-02-22T06:04:49;101124.19;;;12.24;100.00
48846;BME280;34665;51.886;5.436;2023-02-22T06:07:14;101121.72;;;12.29;100.00
48846;BME280;34665;51.886;5.436;2023-02-22T06:09:40;101122.09;;;12.19;100.00
48846;BME280;34665;51.886;5.436;2023-02-22T06:12:06;101132.84;;;12.95;100.00
48846;BME280;34665;51.886;5.436;2023-02-22T06:14:31;101116.50;;;12.69;100.00
48846;BME280;34665;51.886;5.436;2023-02-22T06:16:57;101125.53;;;12.55;100.00
48846;BME280;34665;51.886;5.436;2023-02-22T06:19:25;101123.34;;;13.05;100.00
48846;BME280;34665;51.886;5.436;2023-02-22T06:21:53;101114.72;;;13.51;100.00
48846;BME280;34665;51.886;5.436;2023-02-22T06:24:18;101114.88;;;13.36;100.00
48846;BME280;34665;51.886;5.436;2023-02-22T06:26:44;101097.50;;;12.91;100.00
48846;BME280;34665;51.886;5.436;2023-02-22T06:29:10;101095.69;;;13.52;100.00
48846;BME280;34665;51.886;5.436;2023-02-22T06:31:35;101101.63;;;13.81;100.00
48846;BME280;34665;51.886;5.436;2023-02-22T06:34:01;101087.97;;;13.89;100.00
48846;BME280;34665;51.886;5.436;2023-02-22T06:36:27;101092.13;;;13.85;100.00
48846;BME280;34665;51.886;5.436;2023-02-22T06:38:55;101083.06;;;13.32;100.00
48846;BME280;34665;51.886;5.436;2023-02-22T06:41:21;101086.38;;;13.34;100.00
48846;BME280;34665;51.886;5.436;2023-02-22T06:43:46;101079.91;;;12.55;100.00
48846;BME280;34665;51.886;5.436;2023-02-22T06:46:12;101086.38;;;12.87;100.00
48846;BME280;34665;51.886;5.436;2023-02-22T06:48:37;101081.84;;;13.62;100.00
48846;BME280;34665;51.886;5.436;2023-02-22T06:51:08;101081.56;;;13.90;100.00
48846;BME280;34665;51.886;5.436;2023-02-22T06:53:33;101080.13;;;13.81;100.00
48846;BME280;34665;51.886;5.436;2023-02-22T06:56:00;101080.91;;;13.95;100.00
48846;BME280;34665;51.886;5.436;2023-02-22T06:58:26;101078.94;;;13.37;100.00
48846;BME280;34665;51.886;5.436;2023-02-22T07:00:52;101082.66;;;13.62;100.00
48846;BME280;34665;51.886;5.436;2023-02-22T07:03:18;101074.69;;;14.01;100.00
48846;BME280;34665;51.886;5.436;2023-02-22T07:05:44;101087.13;;;13.89;100.00
48846;BME280;34665;51.886;5.436;2023-02-22T07:08:10;101077.69;;;13.73;100.00
48846;BME280;34665;51.886;5.436;2023-02-22T07:10:37;101071.88;;;13.83;100.00
48846;BME280;34665;51.886;5.436;2023-02-22T07:13:05;101075.81;;;13.73;100.00
48846;BME280;34665;51.886;5.436;2023-02-22T07:15:33;101075.16;;;13.78;100.00
48846;BME280;34665;51.886;5.436;2023-02-22T07:18:00;101091.31;;;13.78;100.00
48846;BME280;34665;51.886;5.436;2023-02-22T07:20:26;101090.50;;;13.71;100.00
48846;BME280;34665;51.886;5.436;2023-02-22T07:22:52;101093.63;;;13.41;100.00
48846;BME280;34665;51.886;5.436;2023-02-22T07:25:18;101100.44;;;13.50;100.00
48846;BME280;34665;51.886;5.436;2023-02-22T07:27:44;101104.88;;;14.10;100.00
48846;BME280;34665;51.886;5.436;2023-02-22T07:30:22;101096.75;;;14.62;100.00
48846;BME280;34665;51.886;5.436;2023-02-22T07:32:55;101113.81;;;13.97;100.00
48846;BME280;34665;51.886;5.436;2023-02-22T07:35:44;101103.34;;;13.55;100.00
48846;BME280;34665;51.886;5.436;2023-02-22T07:38:11;101104.19;;;13.56;100.00
48846;BME280;34665;51.886;5.436;2023-02-22T07:40:38;101105.75;;;13.90;100.00
48846;BME280;34665;51.886;5.436;2023-02-22T07:45:37;101111.13;;;13.90;100.00
48846;BME280;34665;51.886;5.436;2023-02-22T07:48:03;101116.16;;;13.53;100.00
48846;BME280;34665;51.886;5.436;2023-02-22T07:50:29;101109.09;;;13.18;100.00
48846;BME280;34665;51.886;5.436;2023-02-22T07:52:56;101111.59;;;13.40;100.00
48846;BME280;34665;51.886;5.436;2023-02-22T07:55:26;101111.16;;;12.96;100.00
48846;BME280;34665;51.886;5.436;2023-02-22T07:57:55;101114.69;;;13.10;100.00
48846;BME280;34665;51.886;5.436;2023-02-22T08:00:36;101110.09;;;13.91;100.00
48846;BME280;34665;51.886;5.436;2023-02-22T08:03:04;101108.88;;;13.74;100.00
48846;BME280;34665;51.886;5.436;2023-02-22T08:05:31;101111.94;;;13.91;100.00
48846;BME280;34665;51.886;5.436;2023-02-22T08:07:57;101101.97;;;14.05;100.00
48846;BME280;34665;51.886;5.436;2023-02-22T08:10:24;101109.09;;;14.38;100.00
48846;BME280;34665;51.886;5.436;2023-02-22T08:12:50;101121.09;;;13.63;100.00
48846;BME280;34665;51.886;5.436;2023-02-22T08:15:19;101123.78;;;14.36;100.00
48846;BME280;34665;51.886;5.436;2023-02-22T08:17:45;101125.81;;;13.81;100.00
48846;BME280;34665;51.886;5.436;2023-02-22T08:20:10;101116.72;;;13.82;100.00
48846;BME280;34665;51.886;5.436;2023-02-22T08:22:36;101110.56;;;13.41;100.00
48846;BME280;34665;51.886;5.436;2023-02-22T08:25:01;101122.13;;;13.28;100.00
48846;BME280;34665;51.886;5.436;2023-02-22T08:27:29;101127.25;;;13.90;100.00
48846;BME280;34665;51.886;5.436;2023-02-22T08:29:55;101118.34;;;13.97;100.00
48846;BME280;34665;51.886;5.436;2023-02-22T08:32:22;101116.34;;;13.58;100.00
48846;BME280;34665;51.886;5.436;2023-02-22T08:34:48;101122.09;;;13.82;100.00
48846;BME280;34665;51.886;5.436;2023-02-22T08:37:15;101114.16;;;14.14;100.00
48846;BME280;34665;51.886;5.436;2023-02-22T08:39:41;101114.22;;;14.46;100.00
48846;BME280;34665;51.886;5.436;2023-02-22T08:42:06;101111.44;;;14.67;100.00
48846;BME280;34665;51.886;5.436;2023-02-22T08:44:35;101102.66;;;14.46;100.00
48846;BME280;34665;51.886;5.436;2023-02-22T08:47:01;101106.25;;;14.26;100.00
48846;BME280;34665;51.886;5.436;2023-02-22T08:49:27;101092.03;;;14.12;100.00
48846;BME280;34665;51.886;5.436;2023-02-22T08:51:53;101091.03;;;15.16;100.00
48846;BME280;34665;51.886;5.436;2023-02-22T08:54:18;101087.63;;;15.72;100.00
48846;BME280;34665;51.886;5.436;2023-02-22T08:56:44;101085.97;;;15.71;100.00
48846;BME280;34665;51.886;5.436;2023-02-22T08:59:09;101089.25;;;15.29;100.00
48846;BME280;34665;51.886;5.436;2023-02-22T09:01:36;101088.53;;;14.51;100.00
48846;BME280;34665;51.886;5.436;2023-02-22T09:04:02;101079.31;;;15.04;100.00
48846;BME280;34665;51.886;5.436;2023-02-22T09:06:28;101076.78;;;15.09;100.00
48846;BME280;34665;51.886;5.436;2023-02-22T09:08:54;101077.94;;;15.20;100.00
48846;BME280;34665;51.886;5.436;2023-02-22T09:11:20;101076.81;;;15.53;100.00
48846;BME280;34665;51.886;5.436;2023-02-22T09:13:45;101068.41;;;15.43;100.00
48846;BME280;34665;51.886;5.436;2023-02-22T09:16:10;101070.00;;;15.69;100.00
48846;BME280;34665;51.886;5.436;2023-02-22T09:18:36;101070.91;;;16.00;100.00
48846;BME280;34665;51.886;5.436;2023-02-22T09:21:03;101080.88;;;16.18;100.00
48846;BME280;34665;51.886;5.436;2023-02-22T09:23:29;101078.31;;;16.24;100.00
48846;BME280;34665;51.886;5.436;2023-02-22T09:25:54;101071.81;;;16.13;100.00
48846;BME280;34665;51.886;5.436;2023-02-22T09:28:20;101074.13;;;15.53;100.00
48846;BME280;34665;51.886;5.436;2023-02-22T09:30:45;101074.44;;;15.19;100.00
48846;BME280;34665;51.886;5.436;2023-02-22T09:33:14;101070.56;;;15.09;100.00
48846;BME280;34665;51.886;5.436;2023-02-22T09:35:42;101072.38;;;14.51;100.00
48846;BME280;34665;51.886;5.436;2023-02-22T09:38:11;101071.44;;;15.28;100.00
48846;BME280;34665;51.886;5.436;2023-02-22T09:40:40;101073.97;;;15.23;100.00
48846;BME280;34665;51.886;5.436;2023-02-22T09:43:32;101066.34;;;16.19;100.00
48846;BME280;34665;51.886;5.436;2023-02-22T09:46:25;101060.38;;;16.60;100.00
48846;BME280;34665;51.886;5.436;2023-02-22T09:48:54;101062.19;;;16.78;100.00
48846;BME280;34665;51.886;5.436;2023-02-22T09:51:28;101042.19;;;16.55;100.00
48846;BME280;34665;51.886;5.436;2023-02-22T09:53:58;101047.22;;;17.42;100.00
48846;BME280;34665;51.886;5.436;2023-02-22T09:56:25;101037.47;;;18.05;100.00
48846;BME280;34665;51.886;5.436;2023-02-22T09:58:55;101041.28;;;18.51;99.35
48846;BME280;34665;51.886;5.436;2023-02-22T10:01:38;101043.53;;;17.72;100.00
48846;BME280;34665;51.886;5.436;2023-02-22T10:04:12;101040.75;;;17.55;100.00
48846;BME280;34665;51.886;5.436;2023-02-22T10:09:16;101038.53;;;18.33;97.96
48846;BME280;34665;51.886;5.436;2023-02-22T10:14:25;101035.78;;;18.16;98.97
48846;BME280;34665;51.886;5.436;2023-02-22T10:17:03;101033.66;;;18.47;97.53
48846;BME280;34665;51.886;5.436;2023-02-22T10:22:20;101042.31;;;19.91;91.84
48846;BME280;34665;51.886;5.436;2023-02-22T10:24:59;101046.03;;;19.06;93.48
48846;BME280;34665;51.886;5.436;2023-02-22T10:27:46;101042.81;;;19.27;93.08
48846;BME280;34665;51.886;5.436;2023-02-22T10:30:20;101048.13;;;19.83;90.23
48846;BME280;34665;51.886;5.436;2023-02-22T10:33:07;101045.78;;;20.09;88.37
48846;BME280;34665;51.886;5.436;2023-02-22T10:35:36;101036.66;;;18.97;92.19
48846;BME280;34665;51.886;5.436;2023-02-22T10:38:23;101035.97;;;19.24;89.89
48846;BME280;34665;51.886;5.436;2023-02-22T10:40:55;101032.06;;;17.94;96.29
48846;BME280;34665;51.886;5.436;2023-02-22T10:43:22;101039.28;;;17.88;99.89
48846;BME280;34665;51.886;5.436;2023-02-22T10:45:54;101038.25;;;17.77;98.72
48846;BME280;34665;51.886;5.436;2023-02-22T10:48:21;101032.50;;;17.61;100.00
48846;BME280;34665;51.886;5.436;2023-02-22T10:50:48;101039.72;;;17.20;100.00
48846;BME280;34665;51.886;5.436;2023-02-22T10:53:14;101037.13;;;17.37;100.00
48846;BME280;34665;51.886;5.436;2023-02-22T10:58:54;101030.56;;;17.21;100.00
48846;BME280;34665;51.886;5.436;2023-02-22T11:01:54;101033.50;;;17.08;100.00
48846;BME280;34665;51.886;5.436;2023-02-22T11:04:18;101042.31;;;17.91;100.00
48846;BME280;34665;51.886;5.436;2023-02-22T11:07:07;101028.66;;;17.98;98.53
48846;BME280;34665;51.886;5.436;2023-02-22T11:10:06;101042.41;;;17.56;100.00
48846;BME280;34665;51.886;5.436;2023-02-22T11:12:38;101033.88;;;16.81;100.00
48846;BME280;34665;51.886;5.436;2023-02-22T11:17:45;101034.66;;;17.47;100.00
48846;BME280;34665;51.886;5.436;2023-02-22T11:20:27;101031.50;;;17.39;98.98
48846;BME280;34665;51.886;5.436;2023-02-22T11:22:58;101032.06;;;17.53;96.38
48846;BME280;34665;51.886;5.436;2023-02-22T11:25:34;101030.63;;;17.50;98.11
48846;BME280;34665;51.886;5.436;2023-02-22T11:28:09;101019.97;;;17.43;96.24
48846;BME280;34665;51.886;5.436;2023-02-22T11:30:36;101029.66;;;17.80;94.29
48846;BME280;34665;51.886;5.436;2023-02-22T11:35:51;101011.34;;;17.99;94.47
48846;BME280;34665;51.886;5.436;2023-02-22T11:38:21;101012.19;;;18.00;93.49
48846;BME280;34665;51.886;5.436;2023-02-22T11:43:28;100995.63;;;17.55;96.18
48846;BME280;34665;51.886;5.436;2023-02-22T11:46:05;101003.00;;;17.60;95.84
48846;BME280;34665;51.886;5.436;2023-02-22T11:48:34;101002.09;;;17.42;95.57
48846;BME280;34665;51.886;5.436;2023-02-22T11:51:22;100994.91;;;18.01;92.99
48846;BME280;34665;51.886;5.436;2023-02-22T11:53:54;100990.66;;;18.05;94.17
48846;BME280;34665;51.886;5.436;2023-02-22T11:56:29;100986.84;;;18.18;92.51
48846;BME280;34665;51.886;5.436;2023-02-22T12:01:56;100979.44;;;18.13;95.28
48846;BME280;34665;51.886;5.436;2023-02-22T12:09:50;100969.81;;;17.24;100.00
48846;BME280;34665;51.886;5.436;2023-02-22T12:17:51;100955.19;;;17.48;100.00
48846;BME280;34665;51.886;5.436;2023-02-22T12:25:31;100958.75;;;17.25;100.00
48846;BME280;34665;51.886;5.436;2023-02-22T12:28:10;100953.19;;;17.44;100.00
48846;BME280;34665;51.886;5.436;2023-02-22T12:30:43;100953.19;;;17.85;100.00
48846;BME280;34665;51.886;5.436;2023-02-22T12:33:16;100962.66;;;17.99;100.00
48846;BME280;34665;51.886;5.436;2023-02-22T12:35:50;100963.81;;;17.22;100.00
48846;BME280;34665;51.886;5.436;2023-02-22T12:38:29;100945.72;;;17.63;100.00
48846;BME280;34665;51.886;5.436;2023-02-22T12:43:45;100940.69;;;18.42;100.00
48846;BME280;34665;51.886;5.436;2023-02-22T12:49:37;100948.38;;;17.46;100.00
48846;BME280;34665;51.886;5.436;2023-02-22T12:54:58;100943.19;;;18.14;100.00
48846;BME280;34665;51.886;5.436;2023-02-22T12:57:41;100938.53;;;18.61;100.00
48846;BME280;34665;51.886;5.436;2023-02-22T13:00:18;100931.31;;;18.32;100.00
48846;BME280;34665;51.886;5.436;2023-02-22T13:03:23;100945.00;;;18.94;100.00
48846;BME280;34665;51.886;5.436;2023-02-22T13:06:13;100953.06;;;18.38;100.00
48846;BME280;34665;51.886;5.436;2023-02-22T13:08:47;100951.75;;;19.31;99.74
48846;BME280;34665;51.886;5.436;2023-02-22T13:17:36;100964.19;;;19.49;100.00
48846;BME280;34665;51.886;5.436;2023-02-22T13:20:16;100958.16;;;18.68;99.77
48846;BME280;34665;51.886;5.436;2023-02-22T13:23:28;100962.91;;;18.95;100.00
48846;BME280;34665;51.886;5.436;2023-02-22T13:28:56;100963.00;;;17.21;100.00
48846;BME280;34665;51.886;5.436;2023-02-22T13:31:44;100966.88;;;17.78;100.00
48846;BME280;34665;51.886;5.436;2023-02-22T13:42:40;100955.09;;;18.30;100.00
48846;BME280;34665;51.886;5.436;2023-02-22T13:48:23;100937.69;;;17.39;100.00
48846;BME280;34665;51.886;5.436;2023-02-22T13:56:19;100944.03;;;18.66;100.00
48846;BME280;34665;51.886;5.436;2023-02-22T13:58:48;100943.31;;;18.37;100.00
48846;BME280;34665;51.886;5.436;2023-02-22T14:06:52;100954.28;;;18.13;100.00
48846;BME280;34665;51.886;5.436;2023-02-22T14:09:42;100957.91;;;17.77;100.00
48846;BME280;34665;51.886;5.436;2023-02-22T14:15:18;100962.56;;;17.65;100.00
48846;BME280;34665;51.886;5.436;2023-02-22T14:17:48;100952.56;;;17.66;100.00
48846;BME280;34665;51.886;5.436;2023-02-22T14:20:21;100964.44;;;17.94;100.00
48846;BME280;34665;51.886;5.436;2023-02-22T14:22:54;100958.72;;;18.87;100.00
48846;BME280;34665;51.886;5.436;2023-02-22T14:28:04;100965.78;;;18.88;100.00
48846;BME280;34665;51.886;5.436;2023-02-22T14:30:34;100971.69;;;18.34;100.00
48846;BME280;34665;51.886;5.436;2023-02-22T14:33:01;100970.31;;;18.48;100.00
48846;BME280;34665;51.886;5.436;2023-02-22T14:35:35;100967.66;;;18.88;100.00
48846;BME280;34665;51.886;5.436;2023-02-22T14:38:05;100968.50;;;18.71;98.03
48846;BME280;34665;51.886;5.436;2023-02-22T14:40:38;100968.66;;;18.01;100.00
48846;BME280;34665;51.886;5.436;2023-02-22T14:43:34;100967.50;;;17.68;100.00
48846;BME280;34665;51.886;5.436;2023-02-22T14:46:03;100967.13;;;17.65;100.00
48846;BME280;34665;51.886;5.436;2023-02-22T14:48:34;100972.41;;;17.71;100.00
48846;BME280;34665;51.886;5.436;2023-02-22T14:51:13;100983.53;;;17.34;100.00
48846;BME280;34665;51.886;5.436;2023-02-22T14:53:43;100976.88;;;18.53;100.00
48846;BME280;34665;51.886;5.436;2023-02-22T14:56:24;100972.47;;;17.88;100.00